createdAt,value
2019-06-01T15:58:03.007Z,83.50
2019-06-01T16:00:31.916Z,84.00
2019-06-01T16:03:01.206Z,83.90
2019-06-01T16:05:30.445Z,84.10
2019-06-01T16:07:59.412Z,84.00
2019-06-01T16:10:28.091Z,83.70
2019-06-01T16:12:57.452Z,83.60
2019-06-01T16:15:26.616Z,84.10
2019-06-01T16:17:55.863Z,83.90
2019-06-01T16:20:24.895Z,84.10
2019-06-01T16:22:54.012Z,84.10
2019-06-01T16:25:23.004Z,84.10
2019-06-01T16:27:51.664Z,84.00
2019-06-01T16:30:20.391Z,84.90
2019-06-01T16:32:50.114Z,84.00
2019-06-01T16:35:18.762Z,83.60
2019-06-01T16:37:47.409Z,83.50
2019-06-01T16:40:16.266Z,83.40
2019-06-01T16:42:44.920Z,84.20
2019-06-01T16:45:13.579Z,83.60
2019-06-01T16:47:42.232Z,83.60
2019-06-01T16:50:10.887Z,83.90
2019-06-01T16:52:39.788Z,83.70
2019-06-01T16:55:08.708Z,83.80
2019-06-01T16:57:37.790Z,84.00
2019-06-01T17:00:07.212Z,84.20
2019-06-01T17:02:36.432Z,83.70
2019-06-01T17:05:06.887Z,84.40
2019-06-01T17:07:36.075Z,83.90
2019-06-01T17:10:21.602Z,83.90
2019-06-01T17:12:35.377Z,84.30
2019-06-01T17:15:05.017Z,85.30
2019-06-01T17:17:33.906Z,85.40
2019-06-01T17:20:03.307Z,85.20
2019-06-01T17:22:33.497Z,85.90
2019-06-01T17:25:02.244Z,85.40
2019-06-01T17:27:31.007Z,85.00
2019-06-01T17:30:00.377Z,84.70
2019-06-01T17:32:30.246Z,84.00
2019-06-01T17:34:58.937Z,84.60
2019-06-01T17:37:27.575Z,85.20
2019-06-01T17:39:56.255Z,84.80
2019-06-01T17:42:25.208Z,84.90
2019-06-01T17:44:54.183Z,85.10
2019-06-01T17:47:27.049Z,84.90
2019-06-01T17:49:53.870Z,85.30
2019-06-01T17:52:22.524Z,85.70
2019-06-01T17:54:51.643Z,85.70
2019-06-01T17:57:20.620Z,85.80
2019-06-01T17:59:49.622Z,86.20
2019-06-01T18:02:18.605Z,86.30
2019-06-01T18:04:47.259Z,86.00
2019-06-01T18:07:15.909Z,86.10
2019-06-01T18:09:44.867Z,86.00
2019-06-01T18:12:13.669Z,85.90
2019-06-01T18:14:42.388Z,86.20
2019-06-01T18:17:12.357Z,86.20
2019-06-01T18:19:41.321Z,86.20
2019-06-01T18:22:10.920Z,86.30
2019-06-01T18:24:41.206Z,86.00
2019-06-01T18:27:10.630Z,86.50
2019-06-01T18:29:47.362Z,86.60
2019-06-01T18:32:11.515Z,86.70
2019-06-01T18:34:40.312Z,86.70
2019-06-01T18:37:09.297Z,87.50
2019-06-01T18:39:39.187Z,89.10
2019-06-01T18:42:08.302Z,88.50
2019-06-01T18:44:37.366Z,88.50
2019-06-01T18:47:06.061Z,89.10
2019-06-01T18:49:34.719Z,88.40
2019-06-01T18:52:04.162Z,88.70
2019-06-01T18:54:33.031Z,88.70
2019-06-01T18:57:12.379Z,88.60
2019-06-01T18:59:32.148Z,88.40
2019-06-01T19:02:00.827Z,88.70
2019-06-01T19:04:30.655Z,90.50
2019-06-01T19:06:59.331Z,91.10
2019-06-01T19:09:27.987Z,90.40
2019-06-01T19:11:56.670Z,90.70
2019-06-01T19:14:25.429Z,90.70
2019-06-01T19:16:54.127Z,90.60
2019-06-01T19:19:22.783Z,90.40
2019-06-01T19:21:51.802Z,89.80
2019-06-01T19:24:20.717Z,91.20
2019-06-01T19:26:50.088Z,91.70
2019-06-01T19:29:18.819Z,91.90
2019-06-01T19:31:47.500Z,91.70
2019-06-01T19:34:17.237Z,91.70
2019-06-01T19:36:46.254Z,92.10
2019-06-01T19:39:15.254Z,91.80
2019-06-01T19:41:45.470Z,91.20
2019-06-01T19:44:15.785Z,91.00
2019-06-01T19:46:44.626Z,90.80
2019-06-01T19:49:14.866Z,91.10
2019-06-01T19:51:43.734Z,90.40
2019-06-01T19:54:12.838Z,90.40
2019-06-01T19:56:41.729Z,90.80
2019-06-01T19:59:11.760Z,91.00
2019-06-01T20:01:40.904Z,91.10
2019-06-01T20:04:10.424Z,90.30
2019-06-01T20:06:39.540Z,90.20
2019-06-01T20:09:08.211Z,90.20
2019-06-01T20:11:36.863Z,90.40
2019-06-01T20:14:05.513Z,90.40
2019-06-01T20:16:34.283Z,90.30
2019-06-01T20:19:02.944Z,90.30
2019-06-01T20:21:32.747Z,90.00
2019-06-01T20:24:01.476Z,90.30
2019-06-01T20:26:40.312Z,90.00
2019-06-01T20:29:00.579Z,90.10
2019-06-01T20:31:29.330Z,90.00
2019-06-01T20:33:57.979Z,89.60
2019-06-01T20:36:26.630Z,91.90
2019-06-01T20:38:55.612Z,93.00
2019-06-01T20:41:24.334Z,93.80
2019-06-01T20:43:53.776Z,94.00
2019-06-01T20:46:22.919Z,94.10
2019-06-01T20:48:51.663Z,94.60
2019-06-01T20:51:20.945Z,94.70
2019-06-01T20:53:49.752Z,94.70
2019-06-01T20:56:19.450Z,94.70
2019-06-01T20:58:48.265Z,94.70
2019-06-01T21:01:17.636Z,94.80
2019-06-01T21:03:46.464Z,94.70
2019-06-01T21:06:15.837Z,94.60
2019-06-01T21:08:44.659Z,94.70
2019-06-01T21:11:13.957Z,94.70
2019-06-01T21:13:42.743Z,94.90
2019-06-01T21:16:11.708Z,94.80
2019-06-01T21:18:40.351Z,93.90
2019-06-01T21:21:09.003Z,93.00
2019-06-01T21:23:37.660Z,92.50
2019-06-01T21:26:06.407Z,92.30
2019-06-01T21:28:35.349Z,92.00
2019-06-01T21:31:04.334Z,91.80
2019-06-01T21:33:32.989Z,91.50
2019-06-01T21:36:01.911Z,91.40
2019-06-01T21:38:30.565Z,91.20
2019-06-01T21:40:59.490Z,90.80
2019-06-01T21:43:34.955Z,90.80
2019-06-01T21:45:58.647Z,90.60
2019-06-01T21:48:27.588Z,90.20
2019-06-01T21:50:56.315Z,90.20
2019-06-01T21:53:26.532Z,90.20
2019-06-01T21:55:55.380Z,90.00
2019-06-01T21:58:24.616Z,89.70
2019-06-01T22:00:53.640Z,89.60
2019-06-01T22:03:23.213Z,89.30
2019-06-01T22:05:52.396Z,89.00
2019-06-01T22:08:21.275Z,88.50
2019-06-01T22:10:50.401Z,89.10
2019-06-01T22:13:22.231Z,88.70
2019-06-01T22:15:49.783Z,89.00
2019-06-01T22:18:19.522Z,88.70
2019-06-01T22:20:49.458Z,88.80
2019-06-01T22:23:19.629Z,88.30
2019-06-01T22:25:48.862Z,88.20
2019-06-01T22:28:18.131Z,88.30
2019-06-01T22:30:46.964Z,88.40
2019-06-01T22:33:15.610Z,88.20
2019-06-01T22:35:44.284Z,88.90
2019-06-01T22:38:12.930Z,88.70
2019-06-01T22:40:41.621Z,88.30
2019-06-01T22:43:10.441Z,87.20
2019-06-01T22:45:39.107Z,86.70
2019-06-01T22:48:07.820Z,86.50
2019-06-01T22:50:36.507Z,85.90
2019-06-01T22:53:05.494Z,86.20
2019-06-01T22:55:34.617Z,85.70
2019-06-01T22:58:03.272Z,85.50
2019-06-01T23:00:32.070Z,85.40
2019-06-01T23:03:00.848Z,85.10
2019-06-01T23:05:31.152Z,85.10
2019-06-01T23:07:59.966Z,84.60
2019-06-01T23:10:33.150Z,84.60
2019-06-01T23:12:59.073Z,84.10
2019-06-01T23:15:27.965Z,84.10
2019-06-01T23:17:56.759Z,84.10
2019-06-01T23:20:25.835Z,83.90
2019-06-01T23:22:54.660Z,83.80
2019-06-01T23:25:24.406Z,83.80
2019-06-01T23:27:53.559Z,83.70
2019-06-01T23:30:22.218Z,83.70
2019-06-01T23:32:50.939Z,83.70
2019-06-01T23:35:19.591Z,83.80
2019-06-01T23:37:48.259Z,83.60
2019-06-01T23:40:17.047Z,83.70
2019-06-01T23:42:45.849Z,83.70
2019-06-01T23:45:14.891Z,83.70
2019-06-01T23:47:43.558Z,84.30
2019-06-01T23:50:13.040Z,83.60
2019-06-01T23:52:41.715Z,83.50
2019-06-01T23:55:10.369Z,83.30
2019-06-01T23:57:39.300Z,83.40
